createdAt,value
2022-09-15T00:00:13.723Z,29.53
2022-09-15T00:02:46.107Z,29.50
2022-09-15T00:05:15.976Z,29.55
2022-09-15T00:07:46.293Z,29.58
2022-09-15T00:10:16.372Z,29.47
2022-09-15T00:12:47.690Z,29.50
2022-09-15T00:15:19.026Z,29.63
2022-09-15T00:17:55.005Z,29.50
2022-09-15T00:20:25.601Z,29.45
2022-09-15T00:22:55.585Z,29.36
2022-09-15T00:25:25.641Z,29.33
2022-09-15T00:27:55.802Z,29.35
2022-09-15T00:30:26.401Z,29.41
2022-09-15T00:32:56.627Z,29.37
2022-09-15T00:35:26.794Z,29.34
2022-09-15T00:37:57.198Z,29.37
2022-09-15T00:40:28.830Z,29.42
2022-09-15T00:42:59.234Z,29.40
2022-09-15T00:45:29.031Z,29.38
2022-09-15T00:47:59.839Z,29.38
2022-09-15T00:50:30.655Z,29.41
2022-09-15T00:53:07.350Z,29.49
2022-09-15T00:55:56.153Z,29.54
2022-09-15T00:58:40.374Z,29.38
2022-09-15T01:01:10.921Z,29.41
2022-09-15T01:03:42.209Z,29.39
2022-09-15T01:06:36.751Z,29.45
2022-09-15T01:09:17.880Z,29.59
2022-09-15T01:11:48.247Z,29.47
2022-09-15T01:14:19.123Z,29.37
2022-09-15T01:16:56.978Z,29.55
2022-09-15T01:19:44.694Z,29.68
2022-09-15T01:22:33.256Z,29.65
2022-09-15T01:25:11.025Z,29.62
2022-09-15T01:28:04.911Z,29.77
2022-09-15T01:30:45.061Z,29.70
2022-09-15T01:33:45.649Z,29.68
2022-09-15T01:36:29.783Z,29.78
2022-09-15T01:39:14.812Z,29.93
2022-09-15T01:42:02.746Z,29.83
2022-09-15T01:44:42.091Z,29.95
2022-09-15T01:47:16.965Z,29.99
2022-09-15T01:50:01.303Z,29.99
2022-09-15T01:52:32.711Z,30.04
2022-09-15T01:55:11.758Z,30.01
2022-09-15T01:57:42.599Z,30.04
2022-09-15T02:00:13.040Z,29.94
2022-09-15T02:02:59.431Z,30.19
2022-09-15T02:05:51.203Z,30.29
2022-09-15T02:08:40.101Z,30.22
2022-09-15T02:11:22.020Z,30.37
2022-09-15T02:14:13.002Z,30.37
2022-09-15T02:16:50.492Z,30.33
2022-09-15T02:19:35.225Z,30.38
2022-09-15T02:22:18.998Z,30.52
2022-09-15T02:25:04.683Z,30.69
2022-09-15T02:27:40.338Z,30.68
2022-09-15T02:30:15.595Z,30.39
2022-09-15T02:32:59.822Z,30.52
2022-09-15T02:35:33.222Z,30.42
2022-09-15T02:38:05.541Z,30.58
2022-09-15T02:40:38.873Z,30.78
2022-09-15T02:43:13.823Z,30.64
2022-09-15T02:45:45.546Z,30.64
2022-09-15T02:48:16.128Z,30.80
2022-09-15T02:50:46.842Z,30.77
2022-09-15T02:53:16.751Z,30.95
2022-09-15T02:55:46.222Z,30.86
2022-09-15T02:58:17.053Z,31.02
2022-09-15T03:00:46.922Z,31.00
2022-09-15T03:03:17.813Z,31.11
2022-09-15T03:05:47.587Z,31.16
2022-09-15T03:08:17.640Z,31.29
2022-09-15T03:10:48.320Z,31.24
2022-09-15T03:13:19.868Z,31.29
2022-09-15T03:15:50.972Z,31.37
2022-09-15T03:18:21.074Z,31.33
2022-09-15T03:20:50.544Z,31.45
2022-09-15T03:23:21.410Z,31.45
2022-09-15T03:25:51.384Z,31.57
2022-09-15T03:28:21.021Z,31.56
2022-09-15T03:30:51.676Z,31.54
2022-09-15T03:33:22.035Z,31.69
2022-09-15T03:35:53.754Z,31.73
2022-09-15T03:38:28.103Z,31.71
2022-09-15T03:41:00.302Z,31.94
2022-09-15T03:43:31.926Z,31.96
2022-09-15T03:46:03.105Z,31.81
2022-09-15T03:48:36.006Z,32.25
2022-09-15T03:51:07.410Z,32.33
2022-09-15T03:53:38.850Z,32.21
2022-09-15T03:56:27.498Z,32.30
2022-09-15T03:58:57.261Z,32.59
2022-09-15T04:01:27.128Z,32.62
2022-09-15T04:03:59.321Z,32.59
2022-09-15T04:06:29.453Z,32.84
2022-09-15T04:09:01.805Z,32.68
2022-09-15T04:11:32.207Z,32.83
2022-09-15T04:14:02.343Z,33.05
2022-09-15T04:16:31.923Z,33.02
2022-09-15T04:19:01.775Z,33.13
2022-09-15T04:21:33.211Z,33.05
2022-09-15T04:24:06.170Z,33.31
2022-09-15T04:26:38.866Z,33.51
2022-09-15T04:29:21.165Z,33.59
2022-09-15T04:31:51.699Z,33.67
2022-09-15T04:34:22.480Z,33.75
2022-09-15T04:36:52.850Z,33.85
2022-09-15T04:39:24.242Z,33.95
2022-09-15T04:41:54.166Z,33.85
2022-09-15T04:44:24.951Z,34.09
2022-09-15T04:46:54.883Z,34.23
2022-09-15T04:49:26.056Z,34.19
2022-09-15T04:51:56.460Z,34.10
2022-09-15T04:54:30.012Z,34.31
2022-09-15T04:56:59.992Z,34.48
2022-09-15T04:59:30.071Z,34.50
2022-09-15T05:02:00.243Z,34.51
2022-09-15T05:04:30.340Z,34.45
2022-09-15T05:07:00.377Z,34.72
2022-09-15T05:09:33.423Z,34.91
2022-09-15T05:12:04.019Z,34.56
2022-09-15T05:14:38.158Z,34.83
2022-09-15T05:17:08.070Z,34.88
2022-09-15T05:19:38.032Z,35.00
2022-09-15T05:22:07.959Z,34.88
2022-09-15T05:24:37.727Z,35.06
2022-09-15T05:27:07.943Z,35.21
2022-09-15T05:29:39.662Z,35.34
2022-09-15T05:32:11.283Z,35.45
2022-09-15T05:34:41.016Z,35.58
2022-09-15T05:37:11.901Z,35.48
2022-09-15T05:39:42.354Z,35.69
2022-09-15T05:42:12.654Z,35.48
2022-09-15T05:44:42.667Z,35.84
2022-09-15T05:47:14.249Z,35.92
2022-09-15T05:49:44.476Z,36.13
2022-09-15T05:52:14.374Z,36.14
2022-09-15T05:54:44.501Z,35.87
2022-09-15T05:57:15.187Z,36.06
2022-09-15T05:59:45.688Z,35.95
2022-09-15T06:02:16.021Z,35.71
2022-09-15T06:04:45.888Z,35.58
2022-09-15T06:07:21.123Z,35.54
2022-09-15T06:09:51.234Z,35.55
2022-09-15T06:12:21.971Z,35.32
2022-09-15T06:14:52.306Z,35.20
2022-09-15T06:17:24.679Z,34.73
2022-09-15T06:19:54.509Z,34.66
2022-09-15T06:22:24.004Z,34.81
2022-09-15T06:24:54.586Z,35.14
2022-09-15T06:27:24.440Z,35.50
2022-09-15T06:29:54.161Z,35.74
2022-09-15T06:32:25.109Z,35.96
2022-09-15T06:34:54.929Z,35.98
2022-09-15T06:37:25.339Z,35.94
2022-09-15T06:39:55.309Z,36.13
2022-09-15T06:42:25.729Z,36.10
2022-09-15T06:44:56.006Z,36.21
2022-09-15T06:47:26.157Z,36.19
2022-09-15T06:49:57.001Z,35.95
2022-09-15T06:52:27.712Z,36.07
2022-09-15T06:54:57.453Z,35.92
2022-09-15T06:57:28.149Z,35.77
2022-09-15T06:59:59.188Z,35.78
2022-09-15T07:02:30.398Z,35.45
2022-09-15T07:05:00.710Z,35.67
2022-09-15T07:07:31.743Z,35.88
2022-09-15T07:10:02.179Z,36.03
2022-09-15T07:12:33.984Z,35.67
2022-09-15T07:15:03.852Z,35.68
2022-09-15T07:17:38.981Z,35.92
2022-09-15T07:20:09.120Z,36.07
2022-09-15T07:22:40.260Z,36.05
2022-09-15T07:25:10.563Z,35.76
2022-09-15T07:27:41.705Z,35.82
2022-09-15T07:30:15.064Z,35.83
2022-09-15T07:32:45.473Z,35.89
2022-09-15T07:35:15.393Z,35.73
2022-09-15T07:37:46.630Z,35.62
2022-09-15T07:40:17.139Z,35.47
2022-09-15T07:42:47.874Z,35.54
2022-09-15T07:45:33.490Z,35.58
2022-09-15T07:48:05.327Z,35.67
2022-09-15T07:50:42.076Z,35.66
2022-09-15T07:53:13.989Z,35.67
2022-09-15T07:55:43.711Z,36.04
2022-09-15T07:58:13.781Z,35.95
2022-09-15T08:00:44.307Z,35.92
2022-09-15T08:03:14.978Z,36.07
2022-09-15T08:05:45.814Z,36.37
2022-09-15T08:08:17.912Z,36.54
2022-09-15T08:10:56.950Z,36.75
2022-09-15T08:13:31.335Z,36.77
2022-09-15T08:16:16.933Z,36.97
2022-09-15T08:18:55.670Z,36.91
2022-09-15T08:21:27.395Z,36.73
2022-09-15T08:24:00.370Z,36.78
2022-09-15T08:26:32.868Z,36.72
2022-09-15T08:29:03.382Z,36.58
2022-09-15T08:31:34.179Z,36.57
2022-09-15T08:34:07.691Z,36.50
2022-09-15T08:36:37.952Z,36.39
2022-09-15T08:39:08.445Z,36.37
2022-09-15T08:41:48.220Z,36.49
2022-09-15T08:44:25.021Z,36.38
2022-09-15T08:47:00.749Z,36.33
2022-09-15T08:49:51.951Z,36.47
2022-09-15T08:52:32.175Z,36.52
2022-09-15T08:55:17.580Z,36.45
2022-09-15T08:57:47.967Z,36.50
2022-09-15T09:00:18.994Z,36.73
2022-09-15T09:03:20.764Z,36.96
2022-09-15T09:06:07.897Z,37.01
2022-09-15T09:08:49.771Z,37.13
2022-09-15T09:11:52.223Z,37.24
2022-09-15T09:14:56.133Z,37.18
2022-09-15T09:17:26.255Z,37.02
2022-09-15T09:20:03.545Z,37.05
2022-09-15T09:22:39.279Z,37.11
2022-09-15T09:25:27.090Z,37.01
2022-09-15T09:28:03.875Z,36.81
2022-09-15T09:30:37.023Z,36.67
2022-09-15T09:33:13.326Z,36.58
2022-09-15T09:35:51.049Z,36.66
2022-09-15T09:38:30.287Z,36.56
2022-09-15T09:41:02.484Z,36.31
2022-09-15T09:43:34.702Z,36.12
2022-09-15T09:46:12.502Z,36.10
2022-09-15T09:48:47.878Z,35.89
2022-09-15T09:51:38.278Z,35.96
2022-09-15T09:54:14.076Z,35.95
2022-09-15T09:56:52.466Z,35.82
2022-09-15T09:59:40.709Z,35.89
2022-09-15T10:02:10.834Z,35.68
2022-09-15T10:04:52.293Z,35.81
2022-09-15T10:07:35.544Z,35.72
2022-09-15T10:10:06.852Z,35.59
2022-09-15T10:12:43.364Z,35.70
2022-09-15T10:15:28.315Z,35.69
2022-09-15T10:18:00.070Z,35.62
2022-09-15T10:20:51.312Z,35.76
2022-09-15T10:23:24.271Z,35.63
2022-09-15T10:25:59.825Z,35.59
2022-09-15T10:28:31.514Z,35.53
2022-09-15T10:31:07.656Z,35.65
2022-09-15T10:33:43.487Z,35.64
2022-09-15T10:36:20.479Z,35.53
2022-09-15T10:39:14.488Z,35.79
2022-09-15T10:42:23.641Z,35.76
2022-09-15T10:45:05.685Z,35.81
2022-09-15T10:48:17.036Z,35.82
2022-09-15T10:51:06.461Z,35.96
2022-09-15T10:54:11.716Z,36.05
2022-09-15T10:56:44.435Z,35.82
2022-09-15T10:59:47.269Z,36.03
2022-09-15T11:02:44.896Z,36.00
2022-09-15T11:05:33.212Z,35.82
2022-09-15T11:08:06.070Z,35.82
2022-09-15T11:11:01.839Z,35.88
2022-09-15T11:13:43.348Z,35.66
2022-09-15T11:16:32.797Z,35.71
2022-09-15T11:19:04.625Z,35.33
2022-09-15T11:21:43.874Z,35.46
2022-09-15T11:24:14.202Z,35.29
2022-09-15T11:26:54.302Z,35.32
2022-09-15T11:29:45.809Z,35.25
2022-09-15T11:32:32.811Z,35.13
2022-09-15T11:35:32.974Z,35.19
2022-09-15T11:38:32.083Z,34.97
2022-09-15T11:41:36.300Z,34.97
2022-09-15T11:44:21.060Z,34.81
2022-09-15T11:47:03.429Z,34.94
2022-09-15T11:50:06.923Z,34.90
2022-09-15T11:52:55.374Z,34.65
2022-09-15T11:55:40.360Z,34.73
2022-09-15T11:58:58.647Z,34.81
2022-09-15T12:01:50.023Z,34.83
2022-09-15T12:04:34.304Z,34.85
2022-09-15T12:07:04.332Z,34.58
2022-09-15T12:09:35.648Z,34.53
2022-09-15T12:12:13.841Z,34.63
2022-09-15T12:14:47.221Z,34.49
2022-09-15T12:17:25.878Z,34.54
2022-09-15T12:20:24.078Z,34.55
2022-09-15T12:23:13.619Z,34.47
2022-09-15T12:26:06.996Z,34.32
2022-09-15T12:28:44.728Z,34.30
2022-09-15T12:31:32.404Z,34.25
2022-09-15T12:34:06.342Z,34.10
2022-09-15T12:36:51.127Z,34.14
2022-09-15T12:39:25.760Z,34.03
2022-09-15T12:42:06.812Z,33.98
2022-09-15T12:44:44.133Z,33.94
2022-09-15T12:47:22.931Z,34.11
2022-09-15T12:49:55.582Z,34.02
2022-09-15T12:52:27.417Z,33.99
2022-09-15T12:55:04.688Z,34.02
2022-09-15T12:57:39.581Z,33.98
2022-09-15T13:00:33.725Z,34.01
2022-09-15T13:03:09.188Z,33.87
2022-09-15T13:05:47.695Z,33.89
2022-09-15T13:08:40.100Z,33.94
2022-09-15T13:11:40.340Z,33.85
2022-09-15T13:14:11.979Z,33.61
2022-09-15T13:16:48.238Z,33.69
2022-09-15T13:19:26.412Z,33.63
2022-09-15T13:22:20.106Z,33.54
2022-09-15T13:25:26.755Z,33.58
2022-09-15T13:28:02.484Z,33.43
2022-09-15T13:31:04.540Z,33.50
2022-09-15T13:40:54.325Z,33.21
2022-09-15T13:43:45.641Z,33.25
2022-09-15T13:46:29.586Z,33.25
2022-09-15T13:49:20.565Z,33.23
2022-09-15T13:52:09.886Z,33.29
2022-09-15T13:54:39.913Z,33.12
2022-09-15T13:57:10.611Z,33.07
2022-09-15T13:59:42.675Z,33.12
2022-09-15T14:02:17.499Z,33.22
2022-09-15T14:04:53.338Z,33.16
2022-09-15T14:07:26.402Z,33.15
2022-09-15T14:09:56.381Z,33.14
2022-09-15T14:12:26.582Z,33.06
2022-09-15T14:15:02.496Z,33.10
2022-09-15T14:17:46.046Z,33.10
2022-09-15T14:20:27.561Z,33.23
2022-09-15T14:22:57.438Z,33.10
2022-09-15T14:25:29.691Z,33.00
2022-09-15T14:27:59.073Z,33.14
2022-09-15T14:30:33.675Z,33.02
2022-09-15T14:33:05.343Z,32.79
2022-09-15T14:35:39.692Z,32.83
2022-09-15T14:38:20.825Z,32.72
2022-09-15T14:40:58.528Z,32.87
2022-09-15T14:43:34.022Z,32.85
2022-09-15T14:46:15.247Z,32.88
2022-09-15T14:48:45.489Z,32.58
2022-09-15T14:51:24.876Z,32.67
2022-09-15T14:53:59.295Z,32.73
2022-09-15T14:56:37.740Z,32.79
2022-09-15T14:59:13.864Z,32.57
2022-09-15T15:02:12.017Z,32.56
2022-09-15T15:04:44.784Z,32.61
2022-09-15T15:07:27.614Z,32.71
2022-09-15T15:10:15.162Z,32.68
2022-09-15T15:13:00.866Z,32.70
2022-09-15T15:15:33.290Z,32.60
2022-09-15T15:18:03.102Z,32.71
2022-09-15T15:20:33.317Z,32.32
2022-09-15T15:23:28.569Z,32.49
2022-09-15T15:26:35.641Z,32.45
2022-09-15T15:29:31.060Z,32.35
2022-09-15T15:32:18.487Z,32.32
2022-09-15T15:35:00.015Z,32.32
2022-09-15T15:37:33.659Z,32.24
2022-09-15T15:40:07.260Z,32.20
2022-09-15T15:42:37.569Z,32.22
2022-09-15T15:45:25.689Z,32.33
2022-09-15T15:47:55.883Z,32.10
2022-09-15T15:50:29.645Z,32.09
2022-09-15T15:53:00.227Z,32.15
2022-09-15T15:55:42.177Z,32.23
2022-09-15T15:58:13.924Z,32.08
2022-09-15T16:00:48.062Z,32.19
2022-09-15T16:03:23.479Z,32.21
2022-09-15T16:05:59.937Z,32.16
2022-09-15T16:08:34.662Z,32.09
2022-09-15T16:11:12.063Z,32.05
2022-09-15T16:13:47.413Z,31.95
2022-09-15T16:16:26.892Z,31.89
2022-09-15T16:18:58.311Z,31.86
2022-09-15T16:21:40.361Z,31.86
2022-09-15T16:24:17.487Z,31.99
2022-09-15T16:26:50.638Z,31.87
2022-09-15T16:29:29.424Z,31.82
2022-09-15T16:32:00.135Z,31.72
2022-09-15T16:34:30.391Z,31.77
2022-09-15T16:37:00.330Z,31.66
2022-09-15T16:39:31.115Z,31.78
2022-09-15T16:42:00.990Z,31.68
2022-09-15T16:44:31.414Z,31.68
2022-09-15T16:47:01.514Z,31.65
2022-09-15T16:49:31.778Z,31.69
2022-09-15T16:52:01.295Z,31.78
2022-09-15T16:54:31.465Z,31.69
2022-09-15T16:57:01.441Z,31.76
2022-09-15T16:59:33.326Z,31.72
2022-09-15T17:02:03.404Z,31.79
2022-09-15T17:04:33.812Z,31.73
2022-09-15T17:07:03.926Z,31.87
2022-09-15T17:09:34.567Z,31.84
2022-09-15T17:12:06.163Z,31.87
2022-09-15T17:14:36.545Z,31.89
2022-09-15T17:17:06.526Z,31.87
2022-09-15T17:19:36.980Z,31.82
2022-09-15T17:22:07.020Z,31.67
2022-09-15T17:24:37.354Z,31.73
2022-09-15T17:27:07.976Z,31.63
2022-09-15T17:29:38.545Z,31.72
2022-09-15T17:32:10.597Z,31.68
2022-09-15T17:34:41.198Z,31.75
2022-09-15T17:37:11.715Z,31.69
2022-09-15T17:39:42.140Z,31.68
2022-09-15T17:42:12.574Z,31.70
2022-09-15T17:44:42.897Z,31.73
2022-09-15T17:47:13.526Z,31.69
2022-09-15T17:49:44.267Z,31.82
2022-09-15T17:52:14.026Z,31.76
2022-09-15T17:54:44.170Z,31.81
2022-09-15T17:57:14.024Z,31.74
2022-09-15T17:59:44.160Z,31.73
2022-09-15T18:02:20.460Z,31.88
2022-09-15T18:04:50.705Z,31.63
2022-09-15T18:07:20.662Z,31.67
2022-09-15T18:09:50.150Z,31.66
2022-09-15T18:12:21.200Z,31.65
2022-09-15T18:14:51.211Z,31.59
2022-09-15T18:17:21.390Z,31.59
2022-09-15T18:19:53.418Z,31.57
2022-09-15T18:22:25.341Z,31.67
2022-09-15T18:24:55.390Z,31.54
2022-09-15T18:27:26.363Z,31.54
2022-09-15T18:29:56.373Z,31.54
2022-09-15T18:32:26.775Z,31.53
2022-09-15T18:34:56.468Z,31.52
2022-09-15T18:37:26.273Z,31.52
2022-09-15T18:39:56.433Z,31.56
2022-09-15T18:42:29.752Z,31.46
2022-09-15T18:45:01.555Z,31.57
2022-09-15T18:47:31.365Z,31.50
2022-09-15T18:50:02.764Z,31.52
2022-09-15T18:52:32.853Z,31.58
2022-09-15T18:55:03.750Z,31.59
2022-09-15T18:57:43.409Z,31.69
2022-09-15T19:00:22.676Z,31.61
2022-09-15T19:02:59.562Z,31.72
2022-09-15T19:05:31.991Z,31.67
2022-09-15T19:08:03.216Z,31.67
2022-09-15T19:10:34.123Z,31.59
2022-09-15T19:13:04.645Z,31.57
2022-09-15T19:15:36.039Z,31.59
2022-09-15T19:18:06.369Z,31.62
2022-09-15T19:20:36.498Z,31.75
2022-09-15T19:23:06.284Z,31.83
2022-09-15T19:25:36.348Z,31.77
2022-09-15T19:28:06.568Z,31.86
2022-09-15T19:30:36.704Z,31.76
2022-09-15T19:33:07.213Z,31.68
2022-09-15T19:35:37.377Z,31.62
2022-09-15T19:38:07.543Z,31.66
2022-09-15T19:40:37.479Z,31.69
2022-09-15T19:43:07.477Z,31.76
2022-09-15T19:45:37.837Z,31.73
2022-09-15T19:48:07.792Z,31.68
2022-09-15T19:50:37.729Z,31.65
2022-09-15T19:53:07.900Z,31.63
2022-09-15T19:55:38.042Z,31.60
2022-09-15T19:58:08.133Z,31.64
2022-09-15T20:00:38.419Z,31.50
2022-09-15T20:03:08.482Z,31.64
2022-09-15T20:05:38.319Z,31.55
2022-09-15T20:08:08.411Z,31.60
2022-09-15T20:10:41.084Z,31.63
2022-09-15T20:13:11.226Z,31.60
2022-09-15T20:15:41.995Z,31.46
2022-09-15T20:18:13.189Z,31.52
2022-09-15T20:20:43.327Z,31.43
2022-09-15T20:23:13.648Z,31.39
2022-09-15T20:25:43.321Z,31.44
2022-09-15T20:28:13.975Z,31.50
2022-09-15T20:30:43.714Z,31.39
2022-09-15T20:33:13.909Z,31.37
2022-09-15T20:35:43.632Z,31.42
2022-09-15T20:38:13.425Z,31.41
2022-09-15T20:40:43.628Z,31.46
2022-09-15T20:43:13.853Z,31.49
2022-09-15T20:45:43.685Z,31.41
2022-09-15T20:48:14.233Z,31.32
2022-09-15T20:50:44.505Z,31.26
2022-09-15T20:53:14.666Z,31.25
2022-09-15T20:55:51.675Z,31.44
2022-09-15T20:58:21.913Z,31.34
2022-09-15T21:00:53.422Z,31.38
2022-09-15T21:03:26.037Z,31.28
2022-09-15T21:06:02.106Z,31.26
2022-09-15T21:08:32.035Z,31.26
2022-09-15T21:11:03.275Z,31.20
2022-09-15T21:13:37.568Z,31.36
2022-09-15T21:16:10.660Z,31.36
2022-09-15T21:18:42.026Z,31.17
2022-09-15T21:21:17.900Z,31.34
2022-09-15T21:23:50.072Z,31.30
2022-09-15T21:26:28.983Z,31.32
2022-09-15T21:29:00.015Z,31.05
2022-09-15T21:31:32.701Z,31.15
2022-09-15T21:34:03.367Z,31.01
2022-09-15T21:36:33.534Z,31.08
2022-09-15T21:39:04.298Z,31.07
2022-09-15T21:41:34.206Z,31.09
2022-09-15T21:44:05.214Z,30.97
2022-09-15T21:46:35.194Z,30.92
2022-09-15T21:49:06.046Z,31.12
2022-09-15T21:51:35.803Z,31.19
2022-09-15T21:54:06.101Z,31.09
2022-09-15T21:56:36.105Z,31.00
2022-09-15T21:59:06.086Z,30.63
2022-09-15T22:01:36.099Z,30.52
2022-09-15T22:04:08.468Z,30.03
2022-09-15T22:06:39.265Z,29.97
2022-09-15T22:09:12.362Z,29.56
2022-09-15T22:11:42.901Z,29.14
2022-09-15T22:14:14.439Z,29.13
2022-09-15T22:16:45.444Z,28.69
2022-09-15T22:19:15.423Z,28.87
2022-09-15T22:21:46.006Z,28.56
2022-09-15T22:24:20.423Z,28.59
2022-09-15T22:26:50.570Z,28.41
2022-09-15T22:29:20.433Z,28.32
2022-09-15T22:31:50.522Z,28.39
2022-09-15T22:34:20.406Z,28.49
2022-09-15T22:36:50.894Z,28.56
2022-09-15T22:39:21.712Z,28.43
2022-09-15T22:41:54.549Z,28.50
2022-09-15T22:44:24.537Z,28.52
2022-09-15T22:46:54.863Z,28.55
2022-09-15T22:49:28.947Z,28.55
2022-09-15T22:51:58.965Z,28.53
2022-09-15T22:54:29.312Z,28.52
2022-09-15T22:56:59.201Z,28.45
2022-09-15T22:59:29.422Z,28.49
2022-09-15T23:01:59.715Z,28.58
2022-09-15T23:04:29.659Z,28.66
2022-09-15T23:06:59.675Z,28.70
2022-09-15T23:09:29.370Z,28.55
2022-09-15T23:11:59.374Z,28.43
2022-09-15T23:14:29.653Z,28.55
2022-09-15T23:16:59.395Z,28.52
2022-09-15T23:19:30.049Z,28.46
2022-09-15T23:22:00.183Z,28.45
2022-09-15T23:24:30.109Z,28.32
2022-09-15T23:27:00.434Z,28.42
2022-09-15T23:29:30.372Z,28.39
2022-09-15T23:32:01.501Z,28.28
2022-09-15T23:34:31.719Z,28.11
2022-09-15T23:37:02.024Z,28.18
2022-09-15T23:39:32.042Z,28.22
2022-09-15T23:42:02.664Z,28.16
2022-09-15T23:44:32.676Z,28.15
2022-09-15T23:47:02.302Z,28.20
2022-09-15T23:49:32.409Z,28.27
2022-09-15T23:52:02.534Z,28.08
2022-09-15T23:54:32.763Z,28.10
2022-09-15T23:57:02.693Z,28.19
2022-09-15T23:59:32.172Z,28.17
